Aérodrome :
LOGIN :

S'inscrire | Disclaimer

   EN    FR    IT 

 










Légende :    VFR   VFR Marginal   IFR   IFR Intensif   IFR Très Intensif
Visi : 
Plafond : 
>= 8 km
>= 3000ft
5 à 8 km
1000 à 3000 ft
1500m à 5 km
500 à 1000 ft
800 à 1500m
200 à 500 ft
< 800m
< 200 ft
Symboles :   Orages  Brouillard  Fortes neiges  Fortes précipitations  Vent > 20 kt
SIGMETs :   Divers  Orages  Givrage  Turbulence  Onde Orograph.  Cendres Volcan.







- Altitude de l'aérodrome : 1455 ft


ETIH - Hohenfels Army Air Field

DERNIER METAR :
  • 280748Z AUTO 00000KT 9999 BKN016 BKN022 OVC029 05/04 A2985 RMK AO2 CIG 014V019

METARs EXPIRÉS :
  • 280744Z AUTO VRB03KT 9999 BKN014 BKN019 OVC029 05/04 A2985 RMK AO2 CIG 013V019
  • 280716Z AUTO VRB04KT 9999 BKN013 OVC019 05/04 A2985 RMK AO2
  • 280659Z AUTO VRB04KT 9999 BKN015 OVC060 05/04 A2986 RMK AO2 CIG 015V060 BKN V SCT
  • 280624Z AUTO VRB03KT 9999 SCT075 04/04 A2985 RMK AO2 RAE24
  • 280559Z AUTO VRB03KT 8000 -RA BR FEW019 04/04 A2985 RMK AO2 SLP123 50002
  • 280510Z AUTO 36003KT 5000 -RA BR FEW006 SCT019 04/04 A2985 RMK AO2
  • 280506Z AUTO 00000KT 4000 -RA BR FEW006 SCT018 04/04 A2985 RMK AO2 VIS 4000V6000

TAF TAF ETIH
Valide du 28 à 05h jusqu'au 29 à 11h UTC


280506Z 2805/2911 VRB06KT 6000 -RA BR SCT009 BKN015 620209 621107 QNH2981INS
TEMPO 2805/2808 3200 BR BKN009
BECMG 2807/2808 36009KT 9000 -RA SCT010 BKN015 620209 621107 QNH2984INS
BECMG 2816/2817 VRB06KT 9999 NSW SCT015 BKN040 QNH2992INS
BECMG 2822/2823 VRB06KT 6000 BR FEW006 BKN040 QNH2998INS
BECMG 2900/2901 VRB06KT 3200 BR SCT006 BKN030 QNH2999INS
BECMG 2906/2907 27009KT 8000 BR SCT010 BKN040 QNH3000INS TX07/2813Z TN02/2905Z
Pas de NOTAMs connus pour ce terrain.



MET'MAP, la Météo Aéronautique d'un coup d'oeil ! - Copyright ORBIFLY Décembre 2007 - Disclaimer

ORBIFLY MET'MAP TEAM :

Programmation & Développement : Alexandra Zaïnal
Conception & Développement : Baudouin d'Aumeries
Co-Programmation & Développement : Marc-Olivier Méhu
Soutien technique & logistique : Manuel Goepfert

Contact : metmap@orbifly.com




SOURCES & CREDITS :

   NOAA